createdAt,value
2023-05-19T00:00:38.478Z,95444.00
2023-05-19T00:01:38.493Z,95440.00
2023-05-19T00:02:38.587Z,95442.00
2023-05-19T00:03:38.533Z,95430.00
2023-05-19T00:04:38.503Z,95438.00
2023-05-19T00:05:38.562Z,95440.00
2023-05-19T00:06:38.536Z,95430.00
2023-05-19T00:07:38.526Z,95430.00
2023-05-19T00:08:38.556Z,95430.00
2023-05-19T00:09:38.569Z,95430.00
2023-05-19T00:10:38.553Z,95426.00
2023-05-19T00:11:38.730Z,95426.00
2023-05-19T00:12:38.595Z,95426.00
2023-05-19T00:13:38.606Z,95428.00
2023-05-19T00:14:38.614Z,95426.00
2023-05-19T00:15:38.705Z,95428.00
2023-05-19T00:16:38.669Z,95426.00
2023-05-19T00:17:38.686Z,95426.00
2023-05-19T00:18:38.694Z,95424.00
2023-05-19T00:19:38.700Z,95426.00
2023-05-19T00:20:38.704Z,95426.00
2023-05-19T00:21:38.699Z,95428.00
2023-05-19T00:22:38.740Z,95428.00
2023-05-19T00:23:38.762Z,95430.00
2023-05-19T00:24:38.754Z,95438.00
2023-05-19T00:25:38.761Z,95442.00
2023-05-19T00:26:38.773Z,95442.00
2023-05-19T00:27:38.767Z,95442.00
2023-05-19T00:28:38.790Z,95430.00
2023-05-19T00:29:38.827Z,95440.00
2023-05-19T00:30:38.789Z,95438.00
2023-05-19T00:31:38.849Z,95438.00
2023-05-19T00:32:38.922Z,95430.00
2023-05-19T00:33:38.823Z,95438.00
2023-05-19T00:34:38.871Z,95440.00
2023-05-19T00:35:38.870Z,95442.00
2023-05-19T00:36:38.908Z,95442.00
2023-05-19T00:37:38.875Z,95444.00
2023-05-19T00:38:38.923Z,95442.00
2023-05-19T00:39:38.924Z,95440.00
2023-05-19T00:40:38.927Z,95442.00
2023-05-19T00:41:38.931Z,95438.00
2023-05-19T00:42:38.976Z,95428.00
2023-05-19T00:43:39.006Z,95428.00
2023-05-19T00:44:39.002Z,95424.00
2023-05-19T00:45:39.001Z,95428.00
2023-05-19T00:46:39.020Z,95424.00
2023-05-19T00:47:39.033Z,95428.00
2023-05-19T00:48:39.040Z,95426.00
2023-05-19T00:49:39.069Z,95424.00
2023-05-19T00:50:39.074Z,95426.00
2023-05-19T00:51:39.231Z,95422.00
2023-05-19T00:52:39.128Z,95422.00
2023-05-19T00:53:39.118Z,95422.00
2023-05-19T00:54:39.131Z,95422.00
2023-05-19T00:55:39.175Z,95422.00
2023-05-19T00:56:39.182Z,95420.00
2023-05-19T00:57:39.209Z,95420.00
2023-05-19T00:58:39.192Z,95420.00
2023-05-19T00:59:39.213Z,95416.00
2023-05-19T01:00:39.297Z,95416.00
2023-05-19T01:01:39.328Z,95416.00
2023-05-19T01:02:39.313Z,95416.00
2023-05-19T01:03:39.300Z,95418.00
2023-05-19T01:04:39.308Z,95416.00
2023-05-19T01:05:39.319Z,95416.00
2023-05-19T01:06:39.319Z,95422.00
2023-05-19T01:07:39.326Z,95418.00
2023-05-19T01:08:39.326Z,95420.00
2023-05-19T01:09:39.370Z,95420.00
2023-05-19T01:10:39.368Z,95420.00
2023-05-19T01:11:39.415Z,95420.00
2023-05-19T01:12:39.387Z,95422.00
2023-05-19T01:13:41.914Z,95420.00
2023-05-19T01:14:39.388Z,95416.00
2023-05-19T01:15:39.388Z,95418.00
2023-05-19T01:16:39.439Z,95418.00
2023-05-19T01:17:39.441Z,95416.00
2023-05-19T01:18:39.391Z,95420.00
2023-05-19T01:19:39.331Z,95418.00
2023-05-19T01:20:39.365Z,95416.00
2023-05-19T01:21:39.342Z,95416.00
2023-05-19T01:22:39.346Z,95416.00
2023-05-19T01:23:39.338Z,95414.00
2023-05-19T01:24:39.315Z,95416.00
2023-05-19T01:25:39.359Z,95414.00
2023-05-19T01:26:39.307Z,95414.00
2023-05-19T01:27:39.316Z,95418.00
2023-05-19T01:28:39.322Z,95418.00
2023-05-19T01:29:39.311Z,95418.00
2023-05-19T01:30:39.301Z,95416.00
2023-05-19T01:31:39.308Z,95416.00
2023-05-19T01:32:39.269Z,95416.00
2023-05-19T01:33:39.236Z,95414.00
2023-05-19T01:34:39.227Z,95418.00
2023-05-19T01:35:39.256Z,95416.00
2023-05-19T01:36:39.269Z,95418.00
2023-05-19T01:37:39.244Z,95418.00
2023-05-19T01:38:39.265Z,95414.00
2023-05-19T01:39:39.202Z,95412.00
2023-05-19T01:40:39.256Z,95414.00
2023-05-19T01:41:39.183Z,95412.00
2023-05-19T01:42:39.199Z,95414.00
2023-05-19T01:43:39.217Z,95416.00
2023-05-19T01:44:39.176Z,95418.00
2023-05-19T01:45:39.222Z,95418.00
2023-05-19T01:46:39.196Z,95414.00
2023-05-19T01:47:39.230Z,95416.00
2023-05-19T01:48:39.214Z,95416.00
2023-05-19T01:49:39.174Z,95416.00
2023-05-19T01:50:39.148Z,95418.00
2023-05-19T01:51:39.268Z,95418.00
2023-05-19T01:52:39.132Z,95418.00
2023-05-19T01:53:39.096Z,95420.00
2023-05-19T01:54:39.106Z,95418.00
2023-05-19T01:55:39.155Z,95418.00
2023-05-19T01:56:39.262Z,95418.00
2023-05-19T01:57:39.107Z,95414.00
2023-05-19T01:58:39.118Z,95416.00
2023-05-19T01:59:39.078Z,95418.00
2023-05-19T02:00:39.082Z,95418.00
2023-05-19T02:01:39.165Z,95422.00
2023-05-19T02:02:39.142Z,95420.00
2023-05-19T02:03:39.056Z,95420.00
2023-05-19T02:04:39.089Z,95420.00
2023-05-19T02:05:39.052Z,95420.00
2023-05-19T02:06:39.064Z,95422.00
2023-05-19T02:07:39.028Z,95418.00
2023-05-19T02:08:39.034Z,95420.00
2023-05-19T02:09:39.054Z,95422.00
2023-05-19T02:10:39.033Z,95422.00
2023-05-19T02:11:38.985Z,95424.00
2023-05-19T02:12:39.013Z,95424.00
2023-05-19T02:13:39.012Z,95422.00
2023-05-19T02:14:38.973Z,95424.00
2023-05-19T02:15:39.045Z,95426.00
2023-05-19T02:16:38.952Z,95426.00
2023-05-19T02:17:38.993Z,95428.00
2023-05-19T02:18:38.980Z,95426.00
2023-05-19T02:19:38.959Z,95430.00
2023-05-19T02:20:38.918Z,95428.00
2023-05-19T02:21:38.946Z,95430.00
2023-05-19T02:22:38.931Z,95430.00
2023-05-19T02:23:38.942Z,95428.00
2023-05-19T02:24:38.909Z,95426.00
2023-05-19T02:25:38.910Z,95428.00
2023-05-19T02:26:38.871Z,95430.00
2023-05-19T02:27:38.875Z,95424.00
2023-05-19T02:28:38.885Z,95426.00
2023-05-19T02:29:38.869Z,95426.00
2023-05-19T02:30:38.876Z,95426.00
2023-05-19T02:31:38.935Z,95426.00
2023-05-19T02:32:38.890Z,95426.00
2023-05-19T02:33:38.843Z,95428.00
2023-05-19T02:34:38.834Z,95430.00
2023-05-19T02:35:38.819Z,95430.00
2023-05-19T02:36:38.814Z,95438.00
2023-05-19T02:37:38.811Z,95430.00
2023-05-19T02:38:38.792Z,95430.00
2023-05-19T02:39:38.823Z,95426.00
2023-05-19T02:40:38.771Z,95426.00
2023-05-19T02:41:38.815Z,95426.00
2023-05-19T02:42:38.794Z,95426.00
2023-05-19T02:43:38.804Z,95426.00
2023-05-19T02:44:38.768Z,95426.00
2023-05-19T02:45:38.891Z,95426.00
2023-05-19T02:46:38.834Z,95426.00
2023-05-19T02:47:38.806Z,95424.00
2023-05-19T02:48:38.777Z,95426.00
2023-05-19T02:49:38.758Z,95422.00
2023-05-19T02:50:38.808Z,95424.00
2023-05-19T02:51:38.836Z,95424.00
2023-05-19T02:52:38.834Z,95422.00
2023-05-19T02:53:38.942Z,95418.00
2023-05-19T02:54:38.904Z,95418.00
2023-05-19T02:55:38.892Z,95420.00
2023-05-19T02:56:38.959Z,95420.00
2023-05-19T02:57:38.951Z,95422.00
2023-05-19T02:58:38.955Z,95420.00
2023-05-19T02:59:38.979Z,95420.00
2023-05-19T03:00:39.021Z,95420.00
2023-05-19T03:01:39.042Z,95418.00
2023-05-19T03:02:39.148Z,95416.00
2023-05-19T03:03:39.128Z,95414.00
2023-05-19T03:04:39.118Z,95416.00
2023-05-19T03:05:39.152Z,95414.00
2023-05-19T03:06:39.187Z,95412.00
2023-05-19T03:07:39.205Z,95410.00
2023-05-19T03:08:41.637Z,95408.00
2023-05-19T03:09:39.289Z,95410.00
2023-05-19T03:10:39.230Z,95406.00
2023-05-19T03:11:39.198Z,95406.00
2023-05-19T03:12:39.189Z,95408.00
2023-05-19T03:13:39.198Z,95408.00
2023-05-19T03:14:39.224Z,95408.00
2023-05-19T03:15:39.217Z,95410.00
2023-05-19T03:16:39.295Z,95408.00
2023-05-19T03:17:39.274Z,95404.00
2023-05-19T03:18:39.178Z,95408.00
2023-05-19T03:19:39.168Z,95406.00
2023-05-19T03:20:41.472Z,95406.00
2023-05-19T03:21:39.224Z,95408.00
2023-05-19T03:22:39.247Z,95406.00
2023-05-19T03:23:39.263Z,95408.00
2023-05-19T03:24:39.300Z,95406.00
2023-05-19T03:25:39.288Z,95402.00
2023-05-19T03:26:39.765Z,95402.00
2023-05-19T03:27:39.390Z,95402.00
2023-05-19T03:28:39.423Z,95402.00
2023-05-19T03:29:39.448Z,95408.00
2023-05-19T03:30:39.497Z,95404.00
2023-05-19T03:31:39.801Z,95408.00
2023-05-19T03:32:39.587Z,95408.00
2023-05-19T03:33:39.567Z,95406.00
2023-05-19T03:34:39.590Z,95408.00
2023-05-19T03:35:39.643Z,95410.00
2023-05-19T03:36:39.709Z,95408.00
2023-05-19T03:37:39.665Z,95408.00
2023-05-19T03:38:39.718Z,95406.00
2023-05-19T03:39:39.789Z,95408.00
2023-05-19T03:40:39.794Z,95410.00
2023-05-19T03:41:39.797Z,95408.00
2023-05-19T03:42:39.827Z,95408.00
2023-05-19T03:43:39.857Z,95404.00
2023-05-19T03:44:39.915Z,95404.00
2023-05-19T03:45:40.040Z,95406.00
2023-05-19T03:46:39.984Z,95406.00
2023-05-19T03:47:40.051Z,95406.00
2023-05-19T03:48:40.045Z,95406.00
2023-05-19T03:49:40.095Z,95404.00
2023-05-19T03:50:40.097Z,95406.00
2023-05-19T03:51:40.147Z,95406.00
2023-05-19T03:52:40.180Z,95406.00
2023-05-19T03:53:40.191Z,95404.00
2023-05-19T03:54:40.210Z,95410.00
2023-05-19T03:55:40.276Z,95410.00
2023-05-19T03:56:40.318Z,95410.00
2023-05-19T03:57:40.322Z,95410.00
2023-05-19T03:58:40.369Z,95412.00
2023-05-19T03:59:40.404Z,95414.00
2023-05-19T04:00:40.437Z,95416.00
2023-05-19T04:01:40.497Z,95414.00
2023-05-19T04:02:40.582Z,95416.00
2023-05-19T04:03:40.615Z,95418.00
2023-05-19T04:04:40.626Z,95416.00
2023-05-19T04:05:40.654Z,95412.00
2023-05-19T04:06:40.713Z,95410.00
2023-05-19T04:07:40.717Z,95410.00
2023-05-19T04:08:40.779Z,95408.00
2023-05-19T04:09:40.809Z,95410.00
2023-05-19T04:10:40.862Z,95408.00
2023-05-19T04:11:40.899Z,95408.00
2023-05-19T04:12:40.938Z,95408.00
2023-05-19T04:13:40.925Z,95406.00
2023-05-19T04:14:40.977Z,95404.00
2023-05-19T04:15:41.031Z,95406.00
2023-05-19T04:16:41.043Z,95408.00
2023-05-19T04:17:41.135Z,95404.00
2023-05-19T04:18:41.178Z,95408.00
2023-05-19T04:19:41.170Z,95410.00
2023-05-19T04:20:41.192Z,95410.00
2023-05-19T04:21:41.223Z,95412.00
2023-05-19T04:22:41.313Z,95408.00
2023-05-19T04:23:41.290Z,95412.00
2023-05-19T04:24:41.359Z,95412.00
2023-05-19T04:25:41.378Z,95412.00
2023-05-19T04:26:41.415Z,95414.00
2023-05-19T04:27:41.481Z,95414.00
2023-05-19T04:28:41.505Z,95416.00
2023-05-19T04:29:41.538Z,95414.00
2023-05-19T04:30:41.579Z,95416.00
2023-05-19T04:31:41.859Z,95418.00
2023-05-19T04:32:41.692Z,95418.00
2023-05-19T04:33:41.746Z,95420.00
2023-05-19T04:34:41.725Z,95420.00
2023-05-19T04:35:41.828Z,95414.00
2023-05-19T04:36:41.866Z,95416.00
2023-05-19T04:37:41.864Z,95420.00
2023-05-19T04:38:41.963Z,95422.00
2023-05-19T04:39:41.984Z,95422.00
2023-05-19T04:40:42.050Z,95420.00
2023-05-19T04:41:42.063Z,95420.00
2023-05-19T04:42:42.118Z,95420.00
2023-05-19T04:43:42.172Z,95426.00
2023-05-19T04:44:42.204Z,95424.00
2023-05-19T04:45:42.340Z,95422.00
2023-05-19T04:46:42.326Z,95424.00
2023-05-19T04:47:42.421Z,95422.00
2023-05-19T04:48:42.368Z,95420.00
2023-05-19T04:49:42.396Z,95420.00
2023-05-19T04:50:42.440Z,95420.00
2023-05-19T04:51:42.478Z,95424.00
2023-05-19T04:52:42.558Z,95426.00
2023-05-19T04:53:42.544Z,95422.00
2023-05-19T04:54:42.607Z,95426.00
2023-05-19T04:55:42.641Z,95424.00
2023-05-19T04:56:42.680Z,95430.00
2023-05-19T04:57:42.718Z,95428.00
2023-05-19T04:58:42.764Z,95426.00
2023-05-19T04:59:42.841Z,95426.00
2023-05-19T05:00:42.913Z,95422.00
2023-05-19T05:01:43.000Z,95420.00
2023-05-19T05:02:43.191Z,95418.00
2023-05-19T05:03:43.079Z,95420.00
2023-05-19T05:04:43.101Z,95420.00
2023-05-19T05:05:43.191Z,95424.00
2023-05-19T05:06:43.233Z,95426.00
2023-05-19T05:07:43.294Z,95426.00
2023-05-19T05:08:43.386Z,95426.00
2023-05-19T05:09:43.453Z,95426.00
2023-05-19T05:10:43.496Z,95426.00
2023-05-19T05:11:43.602Z,95424.00
2023-05-19T05:12:43.615Z,95422.00
2023-05-19T05:13:43.682Z,95422.00
2023-05-19T05:14:43.742Z,95420.00
2023-05-19T05:15:43.794Z,95424.00
2023-05-19T05:16:43.985Z,95428.00
2023-05-19T05:17:43.901Z,95426.00
2023-05-19T05:18:45.037Z,95422.00
2023-05-19T05:19:43.999Z,95424.00
2023-05-19T05:20:44.117Z,95424.00
2023-05-19T05:21:44.119Z,95420.00
2023-05-19T05:22:44.148Z,95422.00
2023-05-19T05:23:44.256Z,95420.00
2023-05-19T05:24:44.320Z,95414.00
2023-05-19T05:25:44.354Z,95414.00
2023-05-19T05:26:44.422Z,95416.00
2023-05-19T05:27:44.483Z,95412.00
2023-05-19T05:28:44.521Z,95416.00
2023-05-19T05:29:44.593Z,95414.00
2023-05-19T05:30:44.664Z,95418.00
2023-05-19T05:31:44.690Z,95418.00
2023-05-19T05:32:44.854Z,95416.00
2023-05-19T05:33:44.841Z,95414.00
2023-05-19T05:34:44.966Z,95416.00
2023-05-19T05:35:44.921Z,95416.00
2023-05-19T05:36:45.006Z,95414.00
2023-05-19T05:37:45.048Z,95412.00
2023-05-19T05:38:45.116Z,95414.00
2023-05-19T05:39:45.159Z,95410.00
2023-05-19T05:40:45.232Z,95412.00
2023-05-19T05:41:45.260Z,95412.00
2023-05-19T05:42:45.338Z,95412.00
2023-05-19T05:43:45.426Z,95410.00
2023-05-19T05:44:45.434Z,95410.00
2023-05-19T05:45:45.565Z,95414.00
2023-05-19T05:46:45.572Z,95412.00
2023-05-19T05:47:45.679Z,95414.00
2023-05-19T05:48:45.692Z,95410.00
2023-05-19T05:49:45.753Z,95408.00
2023-05-19T05:50:45.828Z,95406.00
2023-05-19T05:51:54.697Z,95410.00
2023-05-19T05:52:46.896Z,95406.00
2023-05-19T05:53:45.882Z,95410.00
2023-05-19T05:54:45.893Z,95408.00
2023-05-19T05:55:45.890Z,95406.00
2023-05-19T05:56:45.876Z,95406.00
2023-05-19T05:57:45.856Z,95406.00
2023-05-19T05:58:45.849Z,95406.00
2023-05-19T05:59:45.840Z,95402.00
2023-05-19T06:00:45.844Z,95404.00
2023-05-19T06:01:45.907Z,95406.00
2023-05-19T06:02:45.997Z,95406.00
2023-05-19T06:03:46.065Z,95404.00
2023-05-19T06:04:46.092Z,95406.00
2023-05-19T06:05:46.135Z,95402.00
2023-05-19T06:06:46.168Z,95402.00
2023-05-19T06:07:46.254Z,95402.00
2023-05-19T06:08:46.307Z,95400.00
2023-05-19T06:09:46.334Z,95400.00
2023-05-19T06:10:47.464Z,95400.00
2023-05-19T06:11:46.822Z,95402.00
2023-05-19T06:12:46.481Z,95402.00
2023-05-19T06:13:46.550Z,95402.00
2023-05-19T06:14:46.595Z,95402.00
2023-05-19T06:15:46.746Z,95398.00
2023-05-19T06:16:46.713Z,95400.00
2023-05-19T06:17:46.790Z,95402.00
2023-05-19T06:18:46.855Z,95406.00
2023-05-19T06:19:46.871Z,95406.00
2023-05-19T06:20:46.921Z,95404.00
2023-05-19T06:21:46.963Z,95410.00
2023-05-19T06:22:47.031Z,95408.00
2023-05-19T06:23:47.066Z,95410.00
2023-05-19T06:24:47.149Z,95410.00
2023-05-19T06:25:47.149Z,95412.00
2023-05-19T06:26:47.227Z,95412.00
2023-05-19T06:27:47.306Z,95410.00
2023-05-19T06:28:47.350Z,95412.00
2023-05-19T06:29:47.399Z,95410.00
2023-05-19T06:30:47.429Z,95410.00
2023-05-19T06:31:47.542Z,95408.00
2023-05-19T06:32:47.556Z,95406.00
2023-05-19T06:33:47.576Z,95402.00
2023-05-19T06:34:47.633Z,95402.00
2023-05-19T06:35:47.661Z,95402.00
2023-05-19T06:36:47.703Z,95404.00
2023-05-19T06:37:47.797Z,95404.00
2023-05-19T06:38:47.802Z,95398.00
2023-05-19T06:39:47.863Z,95400.00
2023-05-19T06:40:47.918Z,95400.00
2023-05-19T06:41:48.321Z,95402.00
2023-05-19T06:42:48.013Z,95404.00
2023-05-19T06:43:48.043Z,95402.00
2023-05-19T06:44:48.099Z,95400.00
2023-05-19T06:45:48.143Z,95400.00
2023-05-19T06:46:48.366Z,95402.00
2023-05-19T06:47:48.277Z,95400.00
2023-05-19T06:48:48.233Z,95404.00
2023-05-19T06:49:48.286Z,95402.00
2023-05-19T06:50:48.335Z,95398.00
2023-05-19T06:51:48.371Z,95400.00
2023-05-19T06:52:48.405Z,95398.00
2023-05-19T06:53:48.444Z,95398.00
2023-05-19T06:54:48.441Z,95396.00
2023-05-19T06:55:58.725Z,95394.00
2023-05-19T06:56:49.529Z,95396.00
2023-05-19T06:57:48.505Z,95396.00
2023-05-19T06:58:48.478Z,95398.00
2023-05-19T06:59:48.493Z,95394.00
2023-05-19T07:00:48.489Z,95394.00
2023-05-19T07:01:48.494Z,95392.00
2023-05-19T07:02:48.532Z,95392.00
2023-05-19T07:03:48.557Z,95391.00
2023-05-19T07:04:48.440Z,95391.00
2023-05-19T07:05:48.464Z,95392.00
2023-05-19T07:06:48.454Z,95391.00
2023-05-19T07:07:48.448Z,95394.00
2023-05-19T07:08:48.436Z,95391.00
2023-05-19T07:09:48.431Z,95391.00
2023-05-19T07:10:48.405Z,95394.00
2023-05-19T07:11:48.494Z,95394.00
2023-05-19T07:12:48.399Z,95394.00
2023-05-19T07:13:48.469Z,95392.00
2023-05-19T07:14:48.488Z,95392.00
2023-05-19T07:15:48.533Z,95394.00
2023-05-19T07:16:48.690Z,95392.00
2023-05-19T07:17:48.603Z,95394.00
2023-05-19T07:18:48.683Z,95391.00
2023-05-19T07:19:48.679Z,95391.00
2023-05-19T07:20:48.734Z,95391.00
2023-05-19T07:21:48.853Z,95391.00
2023-05-19T07:22:48.823Z,95391.00
2023-05-19T07:23:48.782Z,95391.00
2023-05-19T07:24:48.876Z,95391.00
2023-05-19T07:25:48.909Z,95391.00
2023-05-19T07:26:49.362Z,95391.00
2023-05-19T07:27:48.990Z,95387.00
2023-05-19T07:28:48.962Z,95387.00
2023-05-19T07:29:49.022Z,95385.00
2023-05-19T07:30:49.031Z,95381.00
2023-05-19T07:31:49.415Z,95383.00
2023-05-19T07:32:49.141Z,95383.00
2023-05-19T07:33:49.127Z,95379.00
2023-05-19T07:34:49.161Z,95379.00
2023-05-19T07:35:49.832Z,95377.00
2023-05-19T07:36:49.222Z,95375.00
2023-05-19T07:37:49.266Z,95375.00
2023-05-19T07:38:49.298Z,95375.00
2023-05-19T07:39:49.348Z,95375.00
2023-05-19T07:40:49.351Z,95377.00
2023-05-19T07:41:49.422Z,95371.00
2023-05-19T07:42:49.474Z,95373.00
2023-05-19T07:43:49.528Z,95371.00
2023-05-19T07:44:49.504Z,95373.00
2023-05-19T07:45:49.586Z,95371.00
2023-05-19T07:46:49.626Z,95371.00
2023-05-19T07:47:49.678Z,95369.00
2023-05-19T07:48:49.721Z,95373.00
2023-05-19T07:49:51.711Z,95369.00
2023-05-19T07:50:49.764Z,95369.00
2023-05-19T07:51:49.799Z,95367.00
2023-05-19T07:52:49.845Z,95365.00
2023-05-19T07:53:49.884Z,95367.00
2023-05-19T07:54:49.938Z,95361.00
2023-05-19T07:55:49.966Z,95361.00
2023-05-19T07:56:50.385Z,95365.00
2023-05-19T07:57:50.043Z,95359.00
2023-05-19T07:58:50.111Z,95359.00
2023-05-19T07:59:50.153Z,95357.00
2023-05-19T08:00:50.191Z,95357.00
2023-05-19T08:01:50.275Z,95357.00
2023-05-19T08:02:50.358Z,95359.00
2023-05-19T08:03:50.481Z,95359.00
2023-05-19T08:04:50.452Z,95357.00
2023-05-19T08:05:50.404Z,95355.00
2023-05-19T08:06:50.448Z,95353.00
2023-05-19T08:07:50.504Z,95351.00
2023-05-19T08:08:50.523Z,95351.00
2023-05-19T08:09:50.573Z,95347.00
2023-05-19T08:10:50.589Z,95349.00
2023-05-19T08:11:50.644Z,95349.00
2023-05-19T08:12:50.707Z,95351.00
2023-05-19T08:13:50.716Z,95351.00
2023-05-19T08:14:50.772Z,95351.00
2023-05-19T08:15:51.021Z,95351.00
2023-05-19T08:16:50.954Z,95349.00
2023-05-19T08:17:50.906Z,95347.00
2023-05-19T08:18:50.990Z,95345.00
2023-05-19T08:19:50.967Z,95345.00
2023-05-19T08:20:51.018Z,95347.00
2023-05-19T08:21:51.394Z,95345.00
2023-05-19T08:22:51.085Z,95344.00
2023-05-19T08:23:51.135Z,95344.00
2023-05-19T08:24:51.190Z,95342.00
2023-05-19T08:25:51.244Z,95342.00
2023-05-19T08:26:51.329Z,95342.00
2023-05-19T08:27:51.325Z,95344.00
2023-05-19T08:28:51.388Z,95340.00
2023-05-19T08:29:51.446Z,95338.00
2023-05-19T08:30:51.434Z,95340.00
2023-05-19T08:31:51.624Z,95338.00
2023-05-19T08:32:51.557Z,95336.00
2023-05-19T08:33:51.557Z,95336.00
2023-05-19T08:34:51.590Z,95334.00
2023-05-19T08:35:51.613Z,95334.00
2023-05-19T08:36:51.852Z,95330.00
2023-05-19T08:37:51.670Z,95328.00
2023-05-19T08:38:51.673Z,95330.00
2023-05-19T08:39:51.693Z,95326.00
2023-05-19T08:40:51.746Z,95328.00
2023-05-19T08:41:51.784Z,95324.00
2023-05-19T08:42:51.766Z,95322.00
2023-05-19T08:43:51.787Z,95326.00
2023-05-19T08:44:51.812Z,95324.00
2023-05-19T08:45:51.834Z,95324.00
2023-05-19T08:46:51.888Z,95324.00
2023-05-19T08:47:51.854Z,95322.00
2023-05-19T08:48:51.876Z,95320.00
2023-05-19T08:49:51.890Z,95318.00
2023-05-19T08:50:51.898Z,95314.00
2023-05-19T08:51:51.945Z,95314.00
2023-05-19T08:52:53.244Z,95312.00
2023-05-19T08:53:51.958Z,95310.00
2023-05-19T08:54:51.979Z,95308.00
2023-05-19T08:55:51.995Z,95310.00
2023-05-19T08:56:52.355Z,95306.00
2023-05-19T08:57:52.060Z,95306.00
2023-05-19T08:58:52.061Z,95306.00
2023-05-19T08:59:52.066Z,95306.00
2023-05-19T09:00:52.078Z,95306.00
2023-05-19T09:01:52.098Z,95303.00
2023-05-19T09:03:00.910Z,95305.00
2023-05-19T09:03:53.168Z,95303.00
2023-05-19T09:04:52.152Z,95308.00
2023-05-19T09:05:52.208Z,95305.00
2023-05-19T09:06:52.098Z,95300.00
2023-05-19T09:07:52.124Z,95303.00
2023-05-19T09:08:52.065Z,95298.00
2023-05-19T09:09:52.043Z,95298.00
2023-05-19T09:10:52.075Z,95298.00
2023-05-19T09:11:52.064Z,95300.00
2023-05-19T09:12:52.014Z,95298.00
2023-05-19T09:13:52.038Z,95297.00
2023-05-19T09:14:52.015Z,95295.00
2023-05-19T09:15:52.018Z,95297.00
2023-05-19T09:16:52.046Z,95293.00
2023-05-19T09:17:52.063Z,95291.00
2023-05-19T09:18:52.046Z,95293.00
2023-05-19T09:19:51.975Z,95287.00
2023-05-19T09:20:51.984Z,95285.00
2023-05-19T09:21:51.979Z,95283.00
2023-05-19T09:22:52.011Z,95285.00
2023-05-19T09:23:51.961Z,95281.00
2023-05-19T09:24:51.971Z,95279.00
2023-05-19T09:25:51.977Z,95277.00
2023-05-19T09:26:51.956Z,95273.00
2023-05-19T09:27:51.967Z,95277.00
2023-05-19T09:28:52.000Z,95283.00
2023-05-19T09:29:52.007Z,95277.00
2023-05-19T09:30:52.005Z,95271.00
2023-05-19T09:31:52.436Z,95271.00
2023-05-19T09:32:52.106Z,95269.00
2023-05-19T09:33:52.049Z,95267.00
2023-05-19T09:34:52.057Z,95269.00
2023-05-19T09:35:52.060Z,95269.00
2023-05-19T09:36:52.392Z,95267.00
2023-05-19T09:37:52.085Z,95267.00
2023-05-19T09:38:52.119Z,95265.00
2023-05-19T09:39:52.133Z,95263.00
2023-05-19T09:40:52.141Z,95261.00
2023-05-19T09:41:52.140Z,95259.00
2023-05-19T09:42:52.121Z,95261.00
2023-05-19T09:43:52.168Z,95261.00
2023-05-19T09:44:52.177Z,95259.00
2023-05-19T09:45:52.209Z,95256.00
2023-05-19T09:46:52.192Z,95256.00
2023-05-19T09:47:52.237Z,95256.00
2023-05-19T09:48:52.195Z,95256.00
2023-05-19T09:49:52.248Z,95258.00
2023-05-19T09:50:52.251Z,95252.00
2023-05-19T09:51:52.276Z,95250.00
2023-05-19T09:52:52.244Z,95248.00
2023-05-19T09:53:52.277Z,95244.00
2023-05-19T09:54:52.279Z,95250.00
2023-05-19T09:55:52.289Z,95252.00
2023-05-19T09:56:52.406Z,95248.00
2023-05-19T09:57:52.270Z,95246.00
2023-05-19T09:58:52.274Z,95242.00
2023-05-19T09:59:52.313Z,95236.00
2023-05-19T10:00:52.298Z,95236.00
2023-05-19T10:01:52.359Z,95232.00
2023-05-19T10:02:52.319Z,95232.00
2023-05-19T10:03:52.304Z,95228.00
2023-05-19T10:04:52.339Z,95226.00
2023-05-19T10:05:52.321Z,95222.00
2023-05-19T10:06:52.278Z,95218.00
2023-05-19T10:07:52.306Z,95220.00
2023-05-19T10:08:52.290Z,95218.00
2023-05-19T10:09:52.292Z,95216.00
2023-05-19T10:10:52.299Z,95216.00
2023-05-19T10:11:52.293Z,95216.00
2023-05-19T10:12:52.320Z,95212.00
2023-05-19T10:13:52.290Z,95209.00
2023-05-19T10:14:52.306Z,95205.00
2023-05-19T10:16:52.348Z,95207.00
2023-05-19T10:17:52.370Z,95207.00
2023-05-19T10:18:52.339Z,95207.00
2023-05-19T10:19:52.283Z,95201.00
2023-05-19T10:20:52.268Z,95201.00
2023-05-19T10:21:52.299Z,95201.00
2023-05-19T10:22:52.253Z,95201.00
2023-05-19T10:23:52.276Z,95195.00
2023-05-19T10:24:52.242Z,95195.00
2023-05-19T10:25:52.256Z,95195.00
2023-05-19T10:26:52.413Z,95193.00
2023-05-19T10:27:52.224Z,95189.00
2023-05-19T10:28:52.224Z,95189.00
2023-05-19T10:29:52.209Z,95187.00
2023-05-19T10:30:52.227Z,95185.00
2023-05-19T10:31:52.242Z,95183.00
2023-05-19T10:32:52.258Z,95189.00
2023-05-19T10:33:52.191Z,95181.00
2023-05-19T10:34:52.184Z,95183.00
2023-05-19T10:35:52.217Z,95181.00
2023-05-19T10:36:52.161Z,95171.00
2023-05-19T10:37:52.153Z,95171.00
2023-05-19T10:38:52.142Z,95167.00
2023-05-19T10:39:52.160Z,95163.00
2023-05-19T10:40:52.136Z,95161.00
2023-05-19T10:41:52.119Z,95165.00
2023-05-19T10:42:52.129Z,95165.00
2023-05-19T10:43:52.137Z,95165.00
2023-05-19T10:44:52.116Z,95161.00
2023-05-19T10:45:52.128Z,95161.00
2023-05-19T10:46:53.510Z,95159.00
2023-05-19T10:47:52.108Z,95158.00
2023-05-19T10:48:52.077Z,95161.00
2023-05-19T10:49:52.107Z,95158.00
2023-05-19T10:50:52.092Z,95159.00
2023-05-19T10:51:52.086Z,95159.00
2023-05-19T10:52:52.029Z,95158.00
2023-05-19T10:53:52.053Z,95156.00
2023-05-19T10:54:52.037Z,95152.00
2023-05-19T10:55:52.053Z,95154.00
2023-05-19T10:56:52.060Z,95150.00
2023-05-19T10:57:52.019Z,95150.00
2023-05-19T10:58:52.004Z,95148.00
2023-05-19T10:59:52.052Z,95146.00
2023-05-19T11:00:51.990Z,95144.00
2023-05-19T11:01:52.042Z,95144.00
2023-05-19T11:02:52.014Z,95148.00
2023-05-19T11:03:52.021Z,95144.00
2023-05-19T11:04:52.226Z,95142.00
2023-05-19T11:05:51.948Z,95140.00
2023-05-19T11:06:51.954Z,95136.00
2023-05-19T11:07:51.980Z,95138.00
2023-05-19T11:08:51.942Z,95138.00
2023-05-19T11:09:51.958Z,95142.00
2023-05-19T11:10:51.928Z,95142.00
2023-05-19T11:11:51.969Z,95142.00
2023-05-19T11:12:52.141Z,95140.00
2023-05-19T11:13:51.918Z,95140.00
2023-05-19T11:14:51.912Z,95138.00
2023-05-19T11:15:51.916Z,95136.00
2023-05-19T11:16:52.055Z,95140.00
2023-05-19T11:17:51.918Z,95136.00
2023-05-19T11:18:51.892Z,95138.00
2023-05-19T11:19:51.891Z,95138.00
2023-05-19T11:20:51.917Z,95138.00
2023-05-19T11:21:51.871Z,95140.00
2023-05-19T11:22:51.880Z,95132.00
2023-05-19T11:23:51.944Z,95130.00
2023-05-19T11:24:51.813Z,95126.00
2023-05-19T11:25:51.861Z,95126.00
2023-05-19T11:26:51.818Z,95128.00
2023-05-19T11:27:51.817Z,95122.00
2023-05-19T11:28:51.904Z,95118.00
2023-05-19T11:29:51.826Z,95118.00
2023-05-19T11:30:51.939Z,95116.00
2023-05-19T11:31:51.877Z,95114.00
2023-05-19T11:32:51.806Z,95114.00
2023-05-19T11:33:51.826Z,95111.00
2023-05-19T11:34:51.757Z,95111.00
2023-05-19T11:35:51.779Z,95107.00
2023-05-19T11:36:51.757Z,95107.00
2023-05-19T11:37:51.747Z,95101.00
2023-05-19T11:38:51.744Z,95101.00
2023-05-19T11:39:51.747Z,95103.00
2023-05-19T11:40:51.754Z,95099.00
2023-05-19T11:41:51.718Z,95097.00
2023-05-19T11:42:51.692Z,95093.00
2023-05-19T11:43:51.714Z,95093.00
2023-05-19T11:44:51.688Z,95093.00
2023-05-19T11:45:51.744Z,95091.00